Time;durP1;ratioP1;P1;durP2;ratioP2;P2;SDS_P1;SDS_P2;PMS_P1;PMS_P2;Temp;Humidity;BMP_temperature;BMP_pressure;BME280_temperature;BME280_humidity;BME280_pressure;Samples;Min_cycle;Max_cycle;Signal;HPM_P1;HPM_P2
2022/11/03 00:00:11;;;;;;;;;;;17.60;99.90;;;;;;5029761;28;19925;-60
2022/11/03 00:02:39;;;;;;;;;;;17.60;99.90;;;;;;5044751;28;19939;-61
2022/11/03 00:06:03;;;;;;;;;;;17.60;99.90;;;;;;5051115;28;19947;-61
2022/11/03 00:07:53;;;;;;;;;;;17.60;99.90;;;;;;5048044;28;19936;-61
2022/11/03 00:10:20;;;;;;;;;;;17.60;99.90;;;;;;5054146;28;19929;-59
2022/11/03 00:12:47;;;;;;;;;;;17.60;99.90;;;;;;5046905;28;20316;-60
2022/11/03 00:15:14;;;;;;;;;;;17.60;99.90;;;;;;5049843;28;19924;-63
2022/11/03 00:17:41;;;;;;;;;;;17.60;99.90;;;;;;5047336;28;19940;-60
2022/11/03 00:20:09;;;;;;;;;;;17.60;99.90;;;;;;5030813;28;19967;-57
2022/11/03 00:22:36;;;;;;;;;;;17.50;99.90;;;;;;5054637;28;19925;-60
2022/11/03 00:25:03;;;;;;;;;;;17.50;99.90;;;;;;5047697;28;20419;-60
2022/11/03 00:27:30;;;;;;;;;;;17.50;99.90;;;;;;5055460;28;19928;-62
2022/11/03 00:29:57;;;;;;;;;;;17.50;99.90;;;;;;5053926;28;20376;-60
2022/11/03 00:32:24;;;;;;;;;;;17.50;99.90;;;;;;5050969;28;19928;-59
2022/11/03 00:34:51;;;;;;;;;;;17.50;99.90;;;;;;5051333;28;19921;-60
2022/11/03 00:37:18;;;;;;;;;;;17.50;99.90;;;;;;5056533;28;19931;-62
2022/11/03 00:39:45;;;;;;;;;;;17.50;99.90;;;;;;5042420;28;19924;-59
2022/11/03 00:42:12;;;;;;;;;;;17.50;99.90;;;;;;5051520;28;20295;-56
2022/11/03 00:44:39;;;;;;;;;;;17.50;99.90;;;;;;5058351;28;19928;-58
2022/11/03 00:47:06;;;;;;;;;;;17.50;99.90;;;;;;5051881;28;19921;-62
2022/11/03 00:49:33;;;;;;;;;;;17.50;99.90;;;;;;5050234;28;19925;-64
2022/11/03 00:52:00;;;;;;;;;;;17.50;99.90;;;;;;5060072;28;19929;-61
2022/11/03 00:54:27;;;;;;;;;;;17.50;99.90;;;;;;5042577;28;19928;-61
2022/11/03 00:56:54;;;;;;;;;;;17.50;99.90;;;;;;5058846;28;19939;-59
2022/11/03 00:59:21;;;;;;;;;;;17.50;99.90;;;;;;5059313;28;19929;-61
2022/11/03 01:01:48;;;;;;;;;;;17.50;99.90;;;;;;5064132;28;20443;-60
2022/11/03 01:07:02;;;;;;;;;;;17.50;99.90;;;;;;5051450;28;20389;-58
2022/11/03 01:09:32;;;;;;;;;;;17.50;99.90;;;;;;5051507;28;19924;-59
2022/11/03 01:11:59;;;;;;;;;;;17.50;99.90;;;;;;5050975;28;19925;-59
2022/11/03 01:14:27;;;;;;;;;;;17.50;99.90;;;;;;5050501;28;19925;-60
2022/11/03 01:16:54;;;;;;;;;;;17.50;99.90;;;;;;5051309;28;20298;-61
2022/11/03 01:19:22;;;;;;;;;;;17.50;99.90;;;;;;5042909;28;20447;-60
2022/11/03 01:21:50;;;;;;;;;;;17.40;99.90;;;;;;5051918;28;20316;-61
2022/11/03 01:24:17;;;;;;;;;;;17.50;99.90;;;;;;5050970;28;19938;-58
2022/11/03 01:26:44;;;;;;;;;;;17.50;99.90;;;;;;5051814;28;19955;-56
2022/11/03 01:29:11;;;;;;;;;;;17.50;99.90;;;;;;5054044;28;19936;-59
2022/11/03 01:31:38;;;;;;;;;;;17.50;99.90;;;;;;5057488;28;20305;-60
2022/11/03 01:34:05;;;;;;;;;;;17.40;99.90;;;;;;5049271;28;20404;-58
2022/11/03 01:36:32;;;;;;;;;;;17.50;99.90;;;;;;5050424;28;20441;-62
2022/11/03 01:38:59;;;;;;;;;;;17.40;99.90;;;;;;5050249;28;20129;-59
2022/11/03 01:41:27;;;;;;;;;;;17.40;99.90;;;;;;5049952;28;19932;-59
2022/11/03 01:44:06;;;;;;;;;;;17.40;99.90;;;;;;5049967;28;20313;-62
2022/11/03 01:46:42;;;;;;;;;;;17.40;99.90;;;;;;5047102;28;19925;-62
2022/11/03 01:49:18;;;;;;;;;;;17.40;99.90;;;;;;5049943;28;19925;-59
2022/11/03 01:51:47;;;;;;;;;;;17.40;99.90;;;;;;5050369;28;19931;-59
2022/11/03 01:54:15;;;;;;;;;;;17.40;99.90;;;;;;5049912;28;20380;-61
2022/11/03 01:56:45;;;;;;;;;;;17.40;99.90;;;;;;5051776;28;20403;-61
2022/11/03 01:59:14;;;;;;;;;;;17.40;99.90;;;;;;5050253;28;20163;-61
2022/11/03 02:01:42;;;;;;;;;;;17.40;99.90;;;;;;5052433;28;19936;-59
2022/11/03 02:04:12;;;;;;;;;;;17.40;99.90;;;;;;5049273;28;20312;-62
2022/11/03 02:06:39;;;;;;;;;;;17.40;99.90;;;;;;5050628;28;19936;-59
2022/11/03 02:09:08;;;;;;;;;;;17.40;99.90;;;;;;5056082;28;19920;-62
2022/11/03 02:14:21;;;;;;;;;;;17.40;99.90;;;;;;5054947;28;19924;-61
2022/11/03 02:16:50;;;;;;;;;;;17.40;99.90;;;;;;5050580;28;20447;-62
2022/11/03 02:19:31;;;;;;;;;;;17.40;99.90;;;;;;5050329;28;19952;-61
2022/11/03 02:22:01;;;;;;;;;;;17.40;99.90;;;;;;5054107;28;19925;-62
2022/11/03 02:24:40;;;;;;;;;;;17.40;99.90;;;;;;5051531;28;20304;-61
2022/11/03 02:27:07;;;;;;;;;;;17.40;99.90;;;;;;5052136;28;19920;-60
2022/11/03 02:29:34;;;;;;;;;;;17.40;99.90;;;;;;5047508;28;19943;-59
2022/11/03 02:32:06;;;;;;;;;;;17.40;99.90;;;;;;5049022;28;19925;-59
2022/11/03 02:34:38;;;;;;;;;;;17.40;99.90;;;;;;5033735;28;20311;-61
2022/11/03 02:37:16;;;;;;;;;;;17.40;99.90;;;;;;5050972;28;19932;-59
2022/11/03 02:39:45;;;;;;;;;;;17.40;99.90;;;;;;5051872;28;20410;-58
2022/11/03 02:42:13;;;;;;;;;;;17.30;99.90;;;;;;5049405;28;19929;-59
2022/11/03 02:44:41;;;;;;;;;;;17.30;99.90;;;;;;5049056;28;19924;-61
2022/11/03 02:47:09;;;;;;;;;;;17.30;99.90;;;;;;5049258;28;19924;-57
2022/11/03 02:49:39;;;;;;;;;;;17.30;99.90;;;;;;5049090;28;19928;-61
2022/11/03 02:52:26;;;;;;;;;;;17.40;99.90;;;;;;5047714;28;19920;-61
2022/11/03 02:54:54;;;;;;;;;;;17.30;99.90;;;;;;5049168;28;19924;-60
2022/11/03 02:57:24;;;;;;;;;;;17.30;99.90;;;;;;5047836;28;19928;-61
2022/11/03 03:00:05;;;;;;;;;;;17.30;99.90;;;;;;5048857;28;19932;-62
2022/11/03 03:02:39;;;;;;;;;;;17.40;99.90;;;;;;5048276;28;19935;-60
2022/11/03 03:05:07;;;;;;;;;;;17.30;99.90;;;;;;5046738;28;19932;-59
2022/11/03 03:07:39;;;;;;;;;;;17.30;99.90;;;;;;5049064;28;19932;-62
2022/11/03 03:10:06;;;;;;;;;;;17.30;99.90;;;;;;5050006;28;19931;-58
2022/11/03 03:12:36;;;;;;;;;;;17.30;99.90;;;;;;5043437;28;19924;-56
2022/11/03 03:15:05;;;;;;;;;;;17.30;99.90;;;;;;5049013;28;19924;-59
2022/11/03 03:17:45;;;;;;;;;;;17.30;99.90;;;;;;5048360;28;19929;-62
2022/11/03 03:20:30;;;;;;;;;;;17.30;99.90;;;;;;5054688;28;19935;-60
2022/11/03 03:23:09;;;;;;;;;;;17.30;99.90;;;;;;5048262;28;19921;-63
2022/11/03 03:25:40;;;;;;;;;;;17.30;99.90;;;;;;5049103;28;19931;-63
2022/11/03 03:28:09;;;;;;;;;;;17.30;99.90;;;;;;5043116;28;19928;-60
2022/11/03 03:30:37;;;;;;;;;;;17.30;99.90;;;;;;5051518;28;19931;-61
2022/11/03 03:33:06;;;;;;;;;;;17.30;99.90;;;;;;5045903;28;19925;-62
2022/11/03 03:35:35;;;;;;;;;;;17.30;99.90;;;;;;5040372;28;19921;-60
2022/11/03 03:38:04;;;;;;;;;;;17.30;99.90;;;;;;5047798;28;20711;-59
2022/11/03 03:40:34;;;;;;;;;;;17.20;99.90;;;;;;5055675;28;19936;-58
2022/11/03 03:43:02;;;;;;;;;;;17.20;99.90;;;;;;5048115;28;19921;-63
2022/11/03 03:45:30;;;;;;;;;;;17.20;99.90;;;;;;5048306;28;19925;-59
2022/11/03 03:47:57;;;;;;;;;;;17.20;99.90;;;;;;5048025;28;19931;-61
2022/11/03 03:50:26;;;;;;;;;;;17.20;99.90;;;;;;5047872;28;19925;-62
2022/11/03 03:52:54;;;;;;;;;;;17.20;99.90;;;;;;5029147;28;19932;-61
2022/11/03 03:55:24;;;;;;;;;;;17.20;99.90;;;;;;5055163;28;19939;-61
2022/11/03 03:57:56;;;;;;;;;;;17.20;99.90;;;;;;5048080;28;19921;-59
2022/11/03 04:00:26;;;;;;;;;;;17.30;99.90;;;;;;5047079;28;19924;-58
2022/11/03 04:02:55;;;;;;;;;;;17.30;99.90;;;;;;5047585;28;19924;-59
2022/11/03 04:05:22;;;;;;;;;;;17.20;99.90;;;;;;5051531;28;19924;-59
2022/11/03 04:07:50;;;;;;;;;;;17.20;99.90;;;;;;5051397;28;19932;-62
2022/11/03 04:10:21;;;;;;;;;;;17.20;99.90;;;;;;5050770;28;19924;-58
2022/11/03 04:23:53;;;;;;;;;;;17.20;99.90;;;;;;5043018;28;19925;-59
2022/11/03 04:26:23;;;;;;;;;;;17.20;99.90;;;;;;5051914;28;19932;-58
2022/11/03 04:28:51;;;;;;;;;;;17.20;99.90;;;;;;5058534;28;19932;-59
2022/11/03 04:31:19;;;;;;;;;;;17.20;99.90;;;;;;5046952;28;20315;-62
2022/11/03 04:33:46;;;;;;;;;;;17.20;99.90;;;;;;5034394;28;20296;-61
2022/11/03 04:36:23;;;;;;;;;;;17.20;99.90;;;;;;5047214;28;19920;-60
2022/11/03 04:38:51;;;;;;;;;;;17.20;99.90;;;;;;5049290;28;19925;-61
2022/11/03 04:41:27;;;;;;;;;;;17.20;99.90;;;;;;5047778;28;19932;-63
2022/11/03 04:43:55;;;;;;;;;;;17.20;99.90;;;;;;5050329;28;20455;-59
2022/11/03 04:46:24;;;;;;;;;;;17.20;99.90;;;;;;5046703;28;20423;-61
2022/11/03 04:48:52;;;;;;;;;;;17.20;99.90;;;;;;5050522;28;19932;-59
2022/11/03 04:51:23;;;;;;;;;;;17.10;99.90;;;;;;5046654;28;19932;-62
2022/11/03 04:54:02;;;;;;;;;;;17.10;99.90;;;;;;5047124;28;20299;-63
2022/11/03 04:56:29;;;;;;;;;;;17.20;99.90;;;;;;5046552;28;19924;-57
2022/11/03 04:58:56;;;;;;;;;;;17.20;99.90;;;;;;5047542;28;19931;-60
2022/11/03 05:01:24;;;;;;;;;;;17.30;99.90;;;;;;5058741;28;20295;-62
2022/11/03 05:03:52;;;;;;;;;;;17.30;99.90;;;;;;5046418;28;19921;-62
2022/11/03 05:06:20;;;;;;;;;;;17.30;99.90;;;;;;5037729;28;19932;-60
2022/11/03 05:08:53;;;;;;;;;;;17.40;99.90;;;;;;5044990;28;19925;-60
2022/11/03 05:11:23;;;;;;;;;;;17.40;99.90;;;;;;5046941;28;19925;-58
2022/11/03 05:13:51;;;;;;;;;;;17.50;99.90;;;;;;5050091;28;19924;-60
2022/11/03 05:16:18;;;;;;;;;;;17.50;99.90;;;;;;5050415;28;19924;-62
2022/11/03 05:18:47;;;;;;;;;;;17.50;99.90;;;;;;5049856;28;19920;-62
2022/11/03 05:21:19;;;;;;;;;;;17.50;99.90;;;;;;5051727;28;20607;-63
2022/11/03 05:23:49;;;;;;;;;;;17.50;99.90;;;;;;5050671;28;20411;-60
2022/11/03 05:26:20;;;;;;;;;;;17.50;99.90;;;;;;5050700;28;19921;-62
2022/11/03 05:29:10;;;;;;;;;;;17.50;99.90;;;;;;5051220;28;19931;-61
2022/11/03 05:31:39;;;;;;;;;;;17.50;99.90;;;;;;5042983;28;20296;-58
2022/11/03 05:34:15;;;;;;;;;;;17.50;99.90;;;;;;5047053;28;19920;-60
2022/11/03 05:36:42;;;;;;;;;;;17.50;99.90;;;;;;5054703;28;20030;-59
2022/11/03 05:39:22;;;;;;;;;;;17.50;99.90;;;;;;5049527;28;19925;-64
2022/11/03 05:41:49;;;;;;;;;;;17.50;99.90;;;;;;5049567;28;19935;-62
2022/11/03 05:44:22;;;;;;;;;;;17.50;99.90;;;;;;5049338;28;20003;-58
2022/11/03 05:46:49;;;;;;;;;;;17.50;99.90;;;;;;5051903;28;19932;-59
2022/11/03 05:49:16;;;;;;;;;;;17.40;99.90;;;;;;5057511;28;19921;-60
2022/11/03 05:51:44;;;;;;;;;;;17.40;99.90;;;;;;5050443;28;19927;-59
2022/11/03 05:54:18;;;;;;;;;;;17.40;99.90;;;;;;5049915;28;19928;-59
2022/11/03 05:56:46;;;;;;;;;;;17.40;99.90;;;;;;5050271;28;20308;-59
2022/11/03 05:59:14;;;;;;;;;;;17.40;99.90;;;;;;5056064;28;19928;-58
2022/11/03 06:01:41;;;;;;;;;;;17.40;99.90;;;;;;5057629;28;19931;-59
2022/11/03 06:04:15;;;;;;;;;;;17.40;99.90;;;;;;5051158;28;19924;-61
2022/11/03 06:06:42;;;;;;;;;;;17.50;99.90;;;;;;5046932;28;19924;-59
2022/11/03 06:09:29;;;;;;;;;;;17.50;99.90;;;;;;5050842;28;19932;-61
2022/11/03 06:11:57;;;;;;;;;;;17.60;99.90;;;;;;5049446;28;19929;-56
2022/11/03 06:14:25;;;;;;;;;;;17.60;99.90;;;;;;5050124;28;20463;-59
2022/11/03 06:16:58;;;;;;;;;;;17.60;99.90;;;;;;5052186;28;19929;-61
2022/11/03 06:19:27;;;;;;;;;;;17.60;99.90;;;;;;5055453;28;20579;-59
2022/11/03 06:21:57;;;;;;;;;;;17.60;99.90;;;;;;5029513;28;20380;-61
2022/11/03 06:24:27;;;;;;;;;;;17.70;99.90;;;;;;5048451;28;19921;-60
2022/11/03 06:26:55;;;;;;;;;;;17.70;99.90;;;;;;5045713;28;19921;-61
2022/11/03 06:29:22;;;;;;;;;;;17.60;99.90;;;;;;5053026;28;19920;-61
2022/11/03 06:31:50;;;;;;;;;;;17.70;99.90;;;;;;5050037;28;19925;-59
2022/11/03 06:34:37;;;;;;;;;;;17.60;99.90;;;;;;5050354;28;19925;-58
2022/11/03 06:37:09;;;;;;;;;;;17.60;99.90;;;;;;5049559;28;19924;-60
2022/11/03 06:39:39;;;;;;;;;;;17.60;99.90;;;;;;5050927;28;19924;-64
2022/11/03 06:42:10;;;;;;;;;;;17.60;99.90;;;;;;5032298;28;19928;-62
2022/11/03 06:44:39;;;;;;;;;;;17.60;99.90;;;;;;5047108;28;19936;-65
2022/11/03 06:47:21;;;;;;;;;;;17.60;99.90;;;;;;5049702;28;19924;-63
2022/11/03 06:49:52;;;;;;;;;;;17.60;99.90;;;;;;5050672;28;19924;-64
2022/11/03 06:52:27;;;;;;;;;;;17.50;99.90;;;;;;5049077;28;19924;-62
2022/11/03 06:54:54;;;;;;;;;;;17.50;99.90;;;;;;5049725;28;19963;-63
2022/11/03 06:57:21;;;;;;;;;;;17.50;99.90;;;;;;5051490;28;19928;-65
2022/11/03 06:59:49;;;;;;;;;;;17.50;99.90;;;;;;5054527;28;20376;-61
2022/11/03 07:02:49;;;;;;;;;;;17.50;99.90;;;;;;5049919;28;19924;-63
2022/11/03 07:05:23;;;;;;;;;;;17.50;99.90;;;;;;5053817;28;19920;-60
2022/11/03 07:07:53;;;;;;;;;;;17.50;99.90;;;;;;5051924;28;20271;-64
2022/11/03 07:10:27;;;;;;;;;;;17.50;99.90;;;;;;5053496;28;19921;-63
2022/11/03 07:12:55;;;;;;;;;;;17.50;99.90;;;;;;5050136;28;19943;-64
2022/11/03 07:15:24;;;;;;;;;;;17.50;99.90;;;;;;5056348;28;20388;-63
2022/11/03 07:17:51;;;;;;;;;;;17.50;99.90;;;;;;5049626;28;19928;-62
2022/11/03 07:20:19;;;;;;;;;;;17.40;99.90;;;;;;5046315;28;19927;-65
2022/11/03 07:22:46;;;;;;;;;;;17.40;99.90;;;;;;5047519;28;19943;-65
2022/11/03 07:25:16;;;;;;;;;;;17.40;99.90;;;;;;5056596;28;19921;-64
2022/11/03 07:27:43;;;;;;;;;;;17.40;99.90;;;;;;5048450;28;19924;-63
2022/11/03 07:30:13;;;;;;;;;;;17.40;99.90;;;;;;5048383;28;19925;-64
2022/11/03 07:32:40;;;;;;;;;;;17.40;99.90;;;;;;5047971;28;20004;-63
2022/11/03 07:35:16;;;;;;;;;;;17.40;99.90;;;;;;5051856;28;19920;-62
2022/11/03 07:37:44;;;;;;;;;;;17.40;99.90;;;;;;5047808;28;19932;-64
2022/11/03 07:40:12;;;;;;;;;;;17.40;99.90;;;;;;5054152;28;20320;-63
2022/11/03 07:42:39;;;;;;;;;;;17.40;99.90;;;;;;5031339;28;19925;-64
2022/11/03 07:45:42;;;;;;;;;;;17.40;99.90;;;;;;5049419;28;20316;-64
2022/11/03 07:48:32;;;;;;;;;;;17.30;99.90;;;;;;4969774;28;19922;-63
2022/11/03 07:51:04;;;;;;;;;;;17.40;99.90;;;;;;5046890;28;20247;-63
2022/11/03 07:53:32;;;;;;;;;;;17.30;99.90;;;;;;5049532;28;20411;-64
2022/11/03 07:55:59;;;;;;;;;;;17.30;99.90;;;;;;5020175;28;19928;-64
2022/11/03 07:58:46;;;;;;;;;;;17.30;99.90;;;;;;5048208;28;20505;-64
2022/11/03 08:01:23;;;;;;;;;;;17.30;99.90;;;;;;5046259;28;20388;-64
2022/11/03 08:03:51;;;;;;;;;;;17.30;99.90;;;;;;5048754;28;20406;-64
2022/11/03 08:06:18;;;;;;;;;;;17.30;99.90;;;;;;5048453;28;19924;-64
2022/11/03 08:08:46;;;;;;;;;;;17.30;99.90;;;;;;5032480;28;19927;-64
2022/11/03 08:11:13;;;;;;;;;;;17.30;99.90;;;;;;5049239;28;19924;-65
2022/11/03 08:13:45;;;;;;;;;;;17.30;99.90;;;;;;5050595;28;19928;-63
2022/11/03 08:16:12;;;;;;;;;;;17.30;99.90;;;;;;5029871;28;19921;-65
2022/11/03 08:18:39;;;;;;;;;;;17.30;99.90;;;;;;5051399;28;19931;-65
2022/11/03 08:21:06;;;;;;;;;;;17.30;99.90;;;;;;5058999;28;19921;-65
2022/11/03 08:23:33;;;;;;;;;;;17.30;99.90;;;;;;5048343;28;19924;-64
2022/11/03 08:26:01;;;;;;;;;;;17.30;99.90;;;;;;5030401;28;19927;-64
2022/11/03 08:28:28;;;;;;;;;;;17.30;99.90;;;;;;5027352;28;19929;-65
2022/11/03 08:31:00;;;;;;;;;;;17.30;99.90;;;;;;5053352;28;19940;-63
2022/11/03 08:33:28;;;;;;;;;;;17.30;99.90;;;;;;5049719;28;19951;-66
2022/11/03 08:36:01;;;;;;;;;;;17.30;99.90;;;;;;5058401;28;20387;-63
2022/11/03 08:38:28;;;;;;;;;;;17.30;99.90;;;;;;5055398;28;19936;-65
2022/11/03 08:40:57;;;;;;;;;;;17.30;99.90;;;;;;5021638;28;20411;-67
2022/11/03 08:43:24;;;;;;;;;;;17.30;99.90;;;;;;5048799;28;19931;-62
2022/11/03 08:45:52;;;;;;;;;;;17.30;99.90;;;;;;5050495;28;19944;-64
2022/11/03 08:48:20;;;;;;;;;;;17.30;99.90;;;;;;5052300;28;19928;-64
2022/11/03 08:50:49;;;;;;;;;;;17.30;99.90;;;;;;5054141;28;19924;-65
2022/11/03 08:53:16;;;;;;;;;;;17.30;99.90;;;;;;5051903;28;19924;-66
2022/11/03 08:55:43;;;;;;;;;;;17.30;99.90;;;;;;5060546;28;19924;-63
2022/11/03 08:58:10;;;;;;;;;;;17.30;99.90;;;;;;5052555;28;19925;-65
2022/11/03 09:00:37;;;;;;;;;;;17.30;99.90;;;;;;5053119;28;19925;-64
2022/11/03 09:03:07;;;;;;;;;;;17.30;99.90;;;;;;5050347;28;20399;-66
2022/11/03 09:05:34;;;;;;;;;;;17.30;99.90;;;;;;5034356;28;19927;-65
2022/11/03 09:08:01;;;;;;;;;;;17.30;99.90;;;;;;5051977;28;19925;-65
2022/11/03 09:10:48;;;;;;;;;;;17.30;99.90;;;;;;5050106;28;19925;-68
2022/11/03 09:13:15;;;;;;;;;;;17.30;99.90;;;;;;5051059;28;19928;-65
2022/11/03 09:15:43;;;;;;;;;;;17.30;99.90;;;;;;5061659;28;20343;-64
2022/11/03 09:18:10;;;;;;;;;;;17.30;99.90;;;;;;5019926;28;19921;-61
2022/11/03 09:20:38;;;;;;;;;;;17.30;99.90;;;;;;5053247;28;19924;-60
2022/11/03 09:23:05;;;;;;;;;;;17.20;99.90;;;;;;5052096;28;20396;-65
2022/11/03 09:25:32;;;;;;;;;;;17.30;99.90;;;;;;5054068;28;19924;-66
2022/11/03 09:27:59;;;;;;;;;;;17.20;99.90;;;;;;5051802;28;19944;-61
2022/11/03 09:30:26;;;;;;;;;;;17.20;99.90;;;;;;5052757;28;19924;-63
2022/11/03 09:32:54;;;;;;;;;;;17.20;99.90;;;;;;5032813;28;19924;-64
2022/11/03 09:35:21;;;;;;;;;;;17.20;99.90;;;;;;5052144;28;19925;-64
2022/11/03 09:37:48;;;;;;;;;;;17.30;99.90;;;;;;5051683;28;20423;-63
2022/11/03 09:40:16;;;;;;;;;;;17.20;99.90;;;;;;5054515;28;20368;-64
2022/11/03 09:42:43;;;;;;;;;;;17.30;99.90;;;;;;5054661;28;20490;-66
2022/11/03 09:45:10;;;;;;;;;;;17.20;99.90;;;;;;5058121;28;20304;-65
2022/11/03 09:47:42;;;;;;;;;;;17.20;99.90;;;;;;5049555;28;19928;-66
2022/11/03 09:50:14;;;;;;;;;;;17.20;99.90;;;;;;5055499;28;20304;-65
2022/11/03 09:52:41;;;;;;;;;;;17.20;99.90;;;;;;5055685;28;19928;-66
2022/11/03 09:55:16;;;;;;;;;;;17.30;99.90;;;;;;5046692;28;19927;-64
2022/11/03 09:57:44;;;;;;;;;;;17.20;99.90;;;;;;5040251;28;19932;-64
2022/11/03 10:00:15;;;;;;;;;;;17.30;99.90;;;;;;5063686;28;20372;-65
2022/11/03 10:02:43;;;;;;;;;;;17.30;99.90;;;;;;5056859;28;19931;-63
2022/11/03 10:05:12;;;;;;;;;;;17.30;99.90;;;;;;5057008;28;19931;-65
2022/11/03 10:07:41;;;;;;;;;;;17.30;99.90;;;;;;5054691;28;20384;-63
2022/11/03 10:10:13;;;;;;;;;;;17.30;99.90;;;;;;5043386;28;19932;-63
2022/11/03 10:12:41;;;;;;;;;;;17.30;99.90;;;;;;5052035;28;19931;-63
2022/11/03 10:15:13;;;;;;;;;;;17.20;99.90;;;;;;5054683;28;19932;-63
2022/11/03 10:17:41;;;;;;;;;;;17.30;99.90;;;;;;5053810;28;19940;-63
2022/11/03 10:20:10;;;;;;;;;;;17.30;99.90;;;;;;5036443;28;20007;-62
2022/11/03 10:22:37;;;;;;;;;;;17.30;99.90;;;;;;5041867;28;19921;-61
2022/11/03 10:25:26;;;;;;;;;;;17.30;99.90;;;;;;5038608;28;19928;-64
2022/11/03 10:28:12;;;;;;;;;;;17.30;99.90;;;;;;5053353;28;19933;-64
2022/11/03 10:30:48;;;;;;;;;;;17.30;99.90;;;;;;5053446;28;20400;-65
2022/11/03 10:33:39;;;;;;;;;;;17.30;99.90;;;;;;5039047;28;19924;-65
2022/11/03 10:36:16;;;;;;;;;;;17.40;99.90;;;;;;5040587;28;19931;-62
2022/11/03 10:38:43;;;;;;;;;;;17.40;99.90;;;;;;5058101;28;19935;-62
2022/11/03 10:41:15;;;;;;;;;;;17.40;99.90;;;;;;5057502;28;19925;-63
2022/11/03 10:43:43;;;;;;;;;;;17.50;99.90;;;;;;5056314;28;19935;-63
2022/11/03 10:46:12;;;;;;;;;;;17.40;99.90;;;;;;5055792;28;19932;-62
2022/11/03 10:49:02;;;;;;;;;;;17.50;99.90;;;;;;5055424;28;19939;-62
2022/11/03 10:51:29;;;;;;;;;;;17.50;99.90;;;;;;5056757;28;19921;-63
2022/11/03 10:53:57;;;;;;;;;;;17.50;99.90;;;;;;5036200;28;19929;-64
2022/11/03 10:56:24;;;;;;;;;;;17.50;99.90;;;;;;5053637;28;19936;-64
2022/11/03 10:58:52;;;;;;;;;;;17.50;99.90;;;;;;5035846;28;19925;-60
2022/11/03 11:01:19;;;;;;;;;;;17.50;99.90;;;;;;5054122;28;19991;-64
2022/11/03 11:03:47;;;;;;;;;;;17.40;99.90;;;;;;5052236;28;19928;-62
2022/11/03 11:06:19;;;;;;;;;;;17.40;99.90;;;;;;5037359;28;19932;-64
2022/11/03 11:08:47;;;;;;;;;;;17.40;99.90;;;;;;5052650;28;19928;-63
2022/11/03 11:11:16;;;;;;;;;;;17.40;99.90;;;;;;5030685;28;19924;-64
2022/11/03 11:13:43;;;;;;;;;;;17.40;99.90;;;;;;5049714;28;19924;-64
2022/11/03 11:16:49;;;;;;;;;;;17.40;99.90;;;;;;5033035;28;19925;-62
2022/11/03 11:19:16;;;;;;;;;;;17.40;99.90;;;;;;4996336;28;19925;-64
2022/11/03 11:21:43;;;;;;;;;;;17.40;99.90;;;;;;4995187;28;19926;-63
2022/11/03 11:24:10;;;;;;;;;;;17.40;99.90;;;;;;4997524;28;19925;-63
2022/11/03 11:26:40;;;;;;;;;;;17.40;99.90;;;;;;4993681;28;20453;-62
2022/11/03 11:29:07;;;;;;;;;;;17.40;99.90;;;;;;4991055;28;19925;-64
2022/11/03 11:31:38;;;;;;;;;;;17.40;99.90;;;;;;4987322;28;19926;-62
2022/11/03 11:34:09;;;;;;;;;;;17.40;99.90;;;;;;4993455;28;19926;-64
2022/11/03 11:36:36;;;;;;;;;;;17.30;99.90;;;;;;4987341;28;19930;-61
2022/11/03 11:39:29;;;;;;;;;;;17.40;99.90;;;;;;4989193;28;20357;-63
2022/11/03 11:42:11;;;;;;;;;;;17.40;99.90;;;;;;5000012;28;19929;-63
2022/11/03 11:44:38;;;;;;;;;;;17.40;99.90;;;;;;4974004;28;19933;-61
2022/11/03 11:47:22;;;;;;;;;;;17.40;99.90;;;;;;4996183;28;19926;-60
2022/11/03 11:50:01;;;;;;;;;;;17.30;99.90;;;;;;4998780;28;19931;-62
2022/11/03 11:52:29;;;;;;;;;;;17.30;99.90;;;;;;5048880;28;19925;-61
2022/11/03 11:54:55;;;;;;;;;;;17.30;99.90;;;;;;5050104;28;19920;-62
2022/11/03 11:57:23;;;;;;;;;;;17.30;99.90;;;;;;5038568;28;19928;-64
2022/11/03 11:59:51;;;;;;;;;;;17.30;99.90;;;;;;5056192;28;19932;-61
2022/11/03 12:02:19;;;;;;;;;;;17.30;99.90;;;;;;5044135;28;19924;-63
2022/11/03 12:04:46;;;;;;;;;;;17.30;99.90;;;;;;5050528;28;19924;-61
2022/11/03 12:07:13;;;;;;;;;;;17.30;99.90;;;;;;5050268;28;19925;-64
2022/11/03 12:09:42;;;;;;;;;;;17.30;99.90;;;;;;5045344;28;20391;-63
2022/11/03 12:12:09;;;;;;;;;;;17.30;99.90;;;;;;5053946;28;19948;-62
2022/11/03 12:14:37;;;;;;;;;;;17.30;99.90;;;;;;5051922;28;19935;-60
2022/11/03 12:17:13;;;;;;;;;;;17.30;99.90;;;;;;5059594;28;19921;-62
2022/11/03 12:19:44;;;;;;;;;;;17.30;99.90;;;;;;5052003;28;19925;-61
2022/11/03 12:22:24;;;;;;;;;;;17.30;99.90;;;;;;5034716;28;19925;-62
2022/11/03 12:24:52;;;;;;;;;;;17.30;99.90;;;;;;5053413;28;19927;-63
2022/11/03 12:27:39;;;;;;;;;;;17.30;99.90;;;;;;5053317;28;19921;-61
2022/11/03 12:30:17;;;;;;;;;;;17.30;99.90;;;;;;5043894;28;19924;-62
2022/11/03 12:32:45;;;;;;;;;;;17.30;99.90;;;;;;5054203;28;20563;-63
2022/11/03 12:35:13;;;;;;;;;;;17.30;99.90;;;;;;5054226;28;19920;-62
2022/11/03 12:37:40;;;;;;;;;;;17.30;99.90;;;;;;5053620;28;19924;-64
2022/11/03 12:40:08;;;;;;;;;;;17.30;99.90;;;;;;5029829;28;19925;-65
2022/11/03 12:42:35;;;;;;;;;;;17.30;99.90;;;;;;5051442;28;19924;-63
2022/11/03 12:45:02;;;;;;;;;;;17.30;99.90;;;;;;5034817;28;20317;-65
2022/11/03 12:47:29;;;;;;;;;;;17.30;99.90;;;;;;5053239;28;19925;-63
2022/11/03 12:49:57;;;;;;;;;;;17.30;99.90;;;;;;5054704;28;19936;-62
2022/11/03 12:52:24;;;;;;;;;;;17.30;99.90;;;;;;5051255;28;20028;-62
2022/11/03 12:54:51;;;;;;;;;;;17.30;99.90;;;;;;5052386;28;19925;-65
2022/11/03 12:57:18;;;;;;;;;;;17.30;99.90;;;;;;5025181;28;19936;-64
2022/11/03 12:59:45;;;;;;;;;;;17.30;99.90;;;;;;5053950;28;19931;-63
2022/11/03 13:02:12;;;;;;;;;;;17.30;99.90;;;;;;5049313;28;19924;-63
2022/11/03 13:04:39;;;;;;;;;;;17.30;99.90;;;;;;5051243;28;19992;-63
2022/11/03 13:07:06;;;;;;;;;;;17.30;99.90;;;;;;5052780;28;19924;-63
2022/11/03 13:09:34;;;;;;;;;;;17.30;99.90;;;;;;5040151;28;19920;-62
2022/11/03 13:14:47;;;;;;;;;;;17.30;99.90;;;;;;5057888;28;20399;-61
2022/11/03 13:17:14;;;;;;;;;;;17.30;99.90;;;;;;5051757;28;19932;-64
2022/11/03 13:19:41;;;;;;;;;;;17.30;99.90;;;;;;5051506;28;19936;-61
2022/11/03 13:22:09;;;;;;;;;;;17.30;99.90;;;;;;5050493;28;19932;-62
2022/11/03 13:24:36;;;;;;;;;;;17.30;99.90;;;;;;5061890;28;20099;-62
2022/11/03 13:27:03;;;;;;;;;;;17.30;99.90;;;;;;5060350;28;19932;-60
2022/11/03 13:29:30;;;;;;;;;;;17.30;99.90;;;;;;5053861;28;19939;-62
2022/11/03 13:32:02;;;;;;;;;;;17.20;99.90;;;;;;5047997;28;19928;-61
2022/11/03 13:34:29;;;;;;;;;;;17.30;99.90;;;;;;5051932;28;20228;-63
2022/11/03 13:36:57;;;;;;;;;;;17.20;99.90;;;;;;5052270;28;19951;-62
2022/11/03 13:39:28;;;;;;;;;;;17.30;99.90;;;;;;5033586;28;19924;-62
2022/11/03 13:41:55;;;;;;;;;;;17.20;99.90;;;;;;5038494;28;20256;-64
2022/11/03 13:44:22;;;;;;;;;;;17.20;99.90;;;;;;5052203;28;19924;-63
2022/11/03 13:46:50;;;;;;;;;;;17.20;99.90;;;;;;5052915;28;19932;-62
2022/11/03 13:49:17;;;;;;;;;;;17.20;99.90;;;;;;5051509;28;20304;-64
2022/11/03 13:52:04;;;;;;;;;;;17.20;99.90;;;;;;5064474;28;19947;-63
2022/11/03 13:54:32;;;;;;;;;;;17.20;99.90;;;;;;5057404;28;19920;-61
2022/11/03 13:57:19;;;;;;;;;;;17.20;99.90;;;;;;5038105;28;19921;-64
2022/11/03 14:00:07;;;;;;;;;;;17.20;99.90;;;;;;5046315;28;19924;-65
2022/11/03 14:02:41;;;;;;;;;;;17.20;99.90;;;;;;5029687;28;20596;-64
2022/11/03 14:05:28;;;;;;;;;;;17.20;99.90;;;;;;5056552;28;19921;-65
2022/11/03 14:07:56;;;;;;;;;;;17.20;99.90;;;;;;5052972;28;19932;-65
2022/11/03 14:10:23;;;;;;;;;;;17.20;99.90;;;;;;5038352;28;19928;-66
2022/11/03 14:12:50;;;;;;;;;;;17.20;99.90;;;;;;5054764;28;20367;-64
2022/11/03 14:15:17;;;;;;;;;;;17.20;99.90;;;;;;5057927;28;19929;-65
2022/11/03 14:17:45;;;;;;;;;;;17.20;99.90;;;;;;5055513;28;19955;-63
2022/11/03 14:20:12;;;;;;;;;;;17.20;99.90;;;;;;5060123;28;19924;-64
2022/11/03 14:22:39;;;;;;;;;;;17.20;99.90;;;;;;5057766;28;19931;-61
2022/11/03 14:25:07;;;;;;;;;;;17.20;99.90;;;;;;5064164;28;19920;-65
2022/11/03 14:27:34;;;;;;;;;;;17.20;99.90;;;;;;5052643;28;19927;-63
2022/11/03 14:30:02;;;;;;;;;;;17.20;99.90;;;;;;5050835;28;19921;-65
2022/11/03 14:32:29;;;;;;;;;;;17.20;99.90;;;;;;5049363;28;20266;-63
2022/11/03 14:34:57;;;;;;;;;;;17.20;99.90;;;;;;5051059;28;19932;-64
2022/11/03 14:37:24;;;;;;;;;;;17.20;99.90;;;;;;5053326;28;19924;-64
2022/11/03 14:39:51;;;;;;;;;;;17.20;99.90;;;;;;5055505;28;19920;-65
2022/11/03 14:42:18;;;;;;;;;;;17.20;99.90;;;;;;5050610;28;19920;-65
2022/11/03 14:44:46;;;;;;;;;;;17.20;99.90;;;;;;5050106;28;19920;-66
2022/11/03 14:47:16;;;;;;;;;;;17.20;99.90;;;;;;5042994;28;19932;-65
2022/11/03 14:49:44;;;;;;;;;;;17.20;99.90;;;;;;5054692;28;19924;-65
2022/11/03 14:52:12;;;;;;;;;;;17.20;99.90;;;;;;5060452;28;20292;-64